createdAt,value
2023-03-29T00:03:59.268Z,6.93
2023-03-29T00:09:06.242Z,6.28
2023-03-29T00:14:08.982Z,6.55
2023-03-29T00:19:11.343Z,7.28
2023-03-29T00:24:13.737Z,6.68
2023-03-29T00:29:16.969Z,6.53
2023-03-29T00:34:19.929Z,6.32
2023-03-29T00:39:22.369Z,6.03
2023-03-29T00:44:53.006Z,6.10
2023-03-29T00:49:58.013Z,6.57
2023-03-29T00:55:06.257Z,5.60
2023-03-29T01:00:12.461Z,5.53
2023-03-29T01:05:20.389Z,5.30
2023-03-29T01:10:29.870Z,5.75
2023-03-29T01:15:33.717Z,6.28
2023-03-29T01:21:10.674Z,5.78
2023-03-29T01:26:19.164Z,5.88
2023-03-29T01:31:31.804Z,5.90
2023-03-29T01:37:00.621Z,5.50
2023-03-29T01:42:12.063Z,5.53
2023-03-29T01:47:36.864Z,4.18
2023-03-29T01:52:50.959Z,5.10
2023-03-29T01:57:56.658Z,5.85
2023-03-29T02:03:03.477Z,5.45
2023-03-29T02:08:10.181Z,5.55
2023-03-29T02:13:12.797Z,5.68
2023-03-29T02:18:19.032Z,5.10
2023-03-29T02:23:27.763Z,5.15
2023-03-29T02:28:32.009Z,5.85
2023-03-29T02:34:00.872Z,4.78
2023-03-29T02:39:06.329Z,4.70
2023-03-29T02:44:14.398Z,5.57
2023-03-29T02:49:17.152Z,5.00
2023-03-29T02:54:22.400Z,4.90
2023-03-29T02:59:24.988Z,4.13
2023-03-29T03:04:27.545Z,4.53
2023-03-29T03:09:29.956Z,4.18
2023-03-29T03:14:32.962Z,4.70
2023-03-29T03:19:36.660Z,4.57
2023-03-29T03:24:39.610Z,3.83
2023-03-29T03:29:42.456Z,3.83
2023-03-29T03:35:06.239Z,3.03
2023-03-29T03:40:09.565Z,3.67
2023-03-29T03:45:13.385Z,3.85
2023-03-29T03:50:27.718Z,3.55
2023-03-29T03:55:32.641Z,2.35
2023-03-29T04:00:46.451Z,2.58
2023-03-29T04:06:07.789Z,2.70
2023-03-29T04:11:33.866Z,3.47
2023-03-29T04:16:37.113Z,2.90
2023-03-29T04:21:58.305Z,2.80
2023-03-29T04:27:01.885Z,3.10
2023-03-29T04:32:04.960Z,2.15
2023-03-29T04:37:30.083Z,2.38
2023-03-29T04:42:34.583Z,2.95
2023-03-29T04:47:40.037Z,2.17
2023-03-29T04:52:51.108Z,2.75
2023-03-29T04:57:54.329Z,2.55
2023-03-29T05:03:04.748Z,2.20
2023-03-29T05:08:10.940Z,2.88
2023-03-29T05:13:29.012Z,2.30
2023-03-29T05:18:32.115Z,3.47
2023-03-29T05:23:34.737Z,3.20
2023-03-29T05:28:42.885Z,2.33
2023-03-29T05:33:45.824Z,2.92
2023-03-29T05:38:48.379Z,2.33
2023-03-29T05:43:51.021Z,2.83
2023-03-29T05:48:55.456Z,2.88
2023-03-29T05:54:08.061Z,2.53
2023-03-29T05:59:10.631Z,2.28
2023-03-29T06:04:14.860Z,1.98
2023-03-29T06:09:26.904Z,2.65
2023-03-29T06:14:38.949Z,2.30
2023-03-29T06:20:02.412Z,2.50
2023-03-29T06:25:11.117Z,2.75
2023-03-29T06:30:16.790Z,2.65
2023-03-29T06:35:23.779Z,2.22
2023-03-29T06:40:32.464Z,1.95
2023-03-29T06:45:37.616Z,2.15
2023-03-29T06:50:44.980Z,2.50
2023-03-29T06:55:52.885Z,3.95
2023-03-29T07:01:15.623Z,3.22
2023-03-29T07:06:24.401Z,3.25
2023-03-29T07:11:27.396Z,3.70
2023-03-29T07:16:32.945Z,3.58
2023-03-29T07:22:04.674Z,3.13
2023-03-29T07:27:21.067Z,3.10
2023-03-29T07:32:25.000Z,3.70
2023-03-29T07:37:47.889Z,4.32
2023-03-29T07:42:55.625Z,3.45
2023-03-29T07:48:00.143Z,3.88
2023-03-29T07:53:10.661Z,3.53
2023-03-29T07:58:14.956Z,3.33
2023-03-29T08:03:18.314Z,3.97
2023-03-29T08:08:20.892Z,3.47
2023-03-29T08:13:32.991Z,3.60
2023-03-29T08:18:54.042Z,3.00
2023-03-29T08:23:59.450Z,3.95
2023-03-29T08:29:23.757Z,4.05
2023-03-29T08:34:26.516Z,4.50
2023-03-29T08:39:58.366Z,4.15
2023-03-29T08:45:21.443Z,4.03
2023-03-29T08:50:48.831Z,3.47
2023-03-29T08:55:56.398Z,3.80
2023-03-29T09:01:35.714Z,3.80
2023-03-29T09:06:42.370Z,4.00
2023-03-29T09:12:48.692Z,3.65
2023-03-29T09:17:57.230Z,4.70
2023-03-29T09:23:23.757Z,4.60
2023-03-29T09:29:52.151Z,3.42
2023-03-29T09:35:14.541Z,3.35
2023-03-29T09:40:40.147Z,3.85
2023-03-29T09:45:53.819Z,3.90
2023-03-29T09:50:57.527Z,3.75
2023-03-29T09:56:02.374Z,2.60
2023-03-29T10:01:22.354Z,2.88
2023-03-29T10:06:27.141Z,3.88
2023-03-29T10:11:37.248Z,3.40
2023-03-29T10:16:42.700Z,3.42
2023-03-29T10:21:49.349Z,3.42
2023-03-29T10:26:56.118Z,3.00
2023-03-29T10:31:58.820Z,2.88
2023-03-29T10:37:02.470Z,2.95
2023-03-29T10:42:05.320Z,2.90
2023-03-29T10:47:16.531Z,3.25
2023-03-29T10:52:19.219Z,3.50
2023-03-29T10:57:41.033Z,3.15
2023-03-29T11:02:49.672Z,3.45
2023-03-29T11:08:01.952Z,3.40
2023-03-29T11:13:21.610Z,3.25
2023-03-29T11:18:39.058Z,3.72
2023-03-29T11:23:57.175Z,4.07
2023-03-29T11:29:29.666Z,3.72
2023-03-29T11:35:27.414Z,4.00
2023-03-29T11:40:37.693Z,4.30
2023-03-29T11:45:46.468Z,4.20
2023-03-29T11:51:03.588Z,3.85
2023-03-29T11:56:16.895Z,3.70
2023-03-29T12:01:32.067Z,3.63
2023-03-29T12:06:48.347Z,3.75
2023-03-29T12:12:03.745Z,3.35
2023-03-29T12:17:13.160Z,3.75
2023-03-29T12:22:15.770Z,4.20
2023-03-29T12:28:12.552Z,4.18
2023-03-29T12:33:51.166Z,3.95
2023-03-29T12:39:20.164Z,3.92
2023-03-29T12:44:49.398Z,3.83
2023-03-29T12:50:00.605Z,4.20
2023-03-29T12:55:18.090Z,4.03
2023-03-29T13:00:28.028Z,4.13
2023-03-29T13:05:39.644Z,3.67
2023-03-29T13:10:43.107Z,3.75
2023-03-29T13:15:46.426Z,3.90
2023-03-29T13:20:57.723Z,4.35
2023-03-29T13:26:28.320Z,4.40
2023-03-29T13:31:44.490Z,4.30
2023-03-29T13:37:08.739Z,3.95
2023-03-29T13:42:36.617Z,4.15
2023-03-29T13:47:54.962Z,4.20
2023-03-29T13:53:21.265Z,3.80
2023-03-29T13:58:38.325Z,3.20
2023-03-29T14:03:47.398Z,4.22
2023-03-29T14:08:52.009Z,3.60
2023-03-29T14:13:59.724Z,3.83
2023-03-29T14:19:13.772Z,3.45
2023-03-29T14:24:21.831Z,3.13
2023-03-29T14:29:30.528Z,3.25
2023-03-29T14:34:32.986Z,2.80
2023-03-29T14:39:36.087Z,3.63
2023-03-29T14:44:38.853Z,4.05
2023-03-29T14:49:41.298Z,3.75
2023-03-29T14:54:47.960Z,3.22
2023-03-29T15:00:02.707Z,2.53
2023-03-29T15:05:07.959Z,1.85
2023-03-29T15:15:21.151Z,2.22
2023-03-29T15:20:29.353Z,2.25
2023-03-29T15:25:46.500Z,1.60
2023-03-29T15:31:00.728Z,2.17
2023-03-29T15:36:12.405Z,2.08
2023-03-29T15:41:15.717Z,1.77
2023-03-29T15:46:18.115Z,1.65
2023-03-29T15:51:20.495Z,1.85
2023-03-29T15:56:23.196Z,1.50
2023-03-29T16:01:35.953Z,1.92
2023-03-29T16:06:38.987Z,1.80
2023-03-29T16:11:43.330Z,1.45
2023-03-29T16:21:48.682Z,1.50
2023-03-29T16:26:54.757Z,1.50
2023-03-29T16:31:59.299Z,1.52
2023-03-29T16:37:01.875Z,1.20
2023-03-29T16:42:04.790Z,1.52
2023-03-29T16:47:07.246Z,1.52
2023-03-29T16:52:09.608Z,1.25
2023-03-29T16:57:12.508Z,1.58
2023-03-29T17:02:14.925Z,1.90
2023-03-29T17:07:17.449Z,1.70
2023-03-29T17:12:21.458Z,1.40
2023-03-29T17:17:34.985Z,1.10
2023-03-29T17:22:40.151Z,1.35
2023-03-29T17:27:42.670Z,1.40
2023-03-29T17:32:47.802Z,1.30
2023-03-29T17:37:50.261Z,1.58
2023-03-29T17:42:52.986Z,1.48
2023-03-29T17:47:55.858Z,1.42
2023-03-29T17:52:58.283Z,1.40
2023-03-29T17:58:01.063Z,1.38
2023-03-29T18:03:04.317Z,1.65
2023-03-29T18:08:06.923Z,1.70
2023-03-29T18:13:14.077Z,1.42
2023-03-29T18:18:16.398Z,1.45
2023-03-29T18:23:18.905Z,1.50
2023-03-29T18:28:21.749Z,1.83
2023-03-29T18:33:24.948Z,1.48
2023-03-29T18:38:27.400Z,1.67
2023-03-29T18:43:31.228Z,1.17
2023-03-29T18:48:39.157Z,1.20
2023-03-29T18:53:43.269Z,1.05
2023-03-29T18:58:46.611Z,1.23
2023-03-29T19:03:49.362Z,1.55
2023-03-29T19:08:54.237Z,1.88
2023-03-29T19:13:56.907Z,1.33
2023-03-29T19:19:00.359Z,1.40
2023-03-29T19:24:05.306Z,1.35
2023-03-29T19:29:07.850Z,1.30
2023-03-29T19:34:11.317Z,1.20
2023-03-29T19:39:13.937Z,1.13
2023-03-29T19:44:16.324Z,1.23
2023-03-29T19:49:19.105Z,1.65
2023-03-29T19:54:22.092Z,1.67
2023-03-29T19:59:25.518Z,2.50
2023-03-29T20:04:29.010Z,2.20
2023-03-29T20:09:35.512Z,1.77
2023-03-29T20:14:40.360Z,1.20
2023-03-29T20:19:44.388Z,1.20
2023-03-29T20:24:46.780Z,1.15
2023-03-29T20:29:49.271Z,1.10
2023-03-29T20:34:51.706Z,1.10
2023-03-29T20:39:56.945Z,0.93
2023-03-29T20:45:00.435Z,0.85
2023-03-29T20:50:04.368Z,1.40
2023-03-29T20:55:06.953Z,1.30
2023-03-29T21:00:12.467Z,1.27
2023-03-29T21:05:15.972Z,1.50
2023-03-29T21:10:18.506Z,1.35
2023-03-29T21:15:21.584Z,1.70
2023-03-29T21:20:24.522Z,1.33
2023-03-29T21:25:26.994Z,0.95
2023-03-29T21:30:31.863Z,1.60
2023-03-29T21:35:35.960Z,1.60
2023-03-29T21:40:39.214Z,1.45
2023-03-29T21:45:41.614Z,1.13
2023-03-29T21:50:44.683Z,1.40
2023-03-29T21:55:50.921Z,1.50
2023-03-29T22:00:56.000Z,1.30
2023-03-29T22:06:01.660Z,1.73
2023-03-29T22:11:08.402Z,1.85
2023-03-29T22:16:16.958Z,1.38
2023-03-29T22:21:25.196Z,2.00
2023-03-29T22:26:30.817Z,1.80
2023-03-29T22:31:33.261Z,1.55
2023-03-29T22:36:36.361Z,1.65
2023-03-29T22:41:38.761Z,2.13
2023-03-29T22:46:41.532Z,2.20
2023-03-29T22:51:43.966Z,1.83
2023-03-29T22:56:47.033Z,2.10
2023-03-29T23:01:50.291Z,3.17
2023-03-29T23:06:53.526Z,2.05
2023-03-29T23:11:55.977Z,2.05
2023-03-29T23:16:58.501Z,2.63
2023-03-29T23:22:01.225Z,2.30
2023-03-29T23:27:05.092Z,2.38
2023-03-29T23:32:07.600Z,2.17
2023-03-29T23:37:09.916Z,3.10
2023-03-29T23:42:12.438Z,2.17
2023-03-29T23:47:14.791Z,2.20
2023-03-29T23:52:17.726Z,2.60
2023-03-29T23:57:21.596Z,3.80
